KYKN/YKN METAR and TAF weather

Enter ICAO airport designator
Station Type Date Time Source
KYKN METAR 2019/08/20 09:48 UTC NOAA

KYKN 200948Z AUTO 05005KT 2 1/2SM BR SCT011 22/21 A2986 RMK AO2


Station Type Date Time Source
KYKN Decoded METAR 2019/08/20 09:48 UTC NOAA

Yankton, Chan Gurney Municipal Airport, SD, United States (KYKN) 42-55N 097-23W
Aug 20, 2019 - 05:48 AM EDT / 2019.08.20 0948 UTC
Wind: from the NE (050 degrees) at 6 MPH (5 KT):0
Visibility: 2 1/2 mile(s):0
Sky conditions: partly cloudy
Weather: mist
Temperature: 71 F (22 C)
Dew Point: 69 F (21 C)
Relative Humidity: 94%
Pressure (altimeter): 29.86 in. Hg (1011 hPa)
ob: KYKN 200948Z AUTO 05005KT 2 1/2SM BR SCT011 22/21 A2986 RMK AO2
cycle: 10

Station Type Date Time Source
KYKN TAF UTC NOAA

Error!

Example: see airport list